Latest Coastal Weather Observations for Albion Park

IDN60701

Issued at 9:51 am EST Tuesday 22 August 2017 (issued every 10 minutes, with the page automatically refreshed every 10 minutes)

About coastal observations | Map of coastal stations | Coastal observations for NSW | Marine services | Other Formats
Station Details ID: 068241 Name: WOLLONGONG AIRPORT Lat: -34.56 Lon: 150.79 Height: 8.0 m
Data from the previous 72 hours. | See also: Recent months at Albion Park
Date/Time
EST
Temp
°C
Wind Pressure Rain since
9am
mm
Weather Cloud Vis
km
Sea
Height
m
Swell
Dir  Spd
kts
Gust
kts
hPa Trend Height
m
Period
s
Dir
22/09:30am 16.0 NW 4 6 1019.8 - 0.0 - - 10 - - - -
22/09:00am 14.4 SW 3 4 1019.7 - 0.0 - - 10 - - - -
22/08:30am 12.7 SW 3 4 1019.6 - 0.0 - - 10 - - - -
22/08:00am 8.6 SW 2 4 1019.6 - 0.0 - - 10 - - - -
22/07:30am 7.2 SW 3 4 1019.4 - 0.0 - - 10 - - - -
22/07:00am 6.2 SW 1 5 1018.9 - 0.0 - - 10 - - - -
22/06:30am 3.5 WSW 4 6 1018.5 - 0.0 - - 10 - - - -
22/06:00am 4.0 CALM 0 0 1018.2 - 0.0 - - 10 - - - -
22/05:30am 3.8 SW 4 5 1018.0 - 0.0 - - 10 - - - -
22/05:00am 4.8 SW 2 5 1017.7 - 0.0 - - 10 - - - -
22/04:30am 4.8 SSW 3 7 1017.6 - 0.0 - - 10 - - - -
22/04:00am 5.9 SW 3 4 1017.4 - 0.0 - Partly cloudy 10 - - - -
22/03:30am 6.6 W 4 6 1017.4 - 0.0 - Partly cloudy 10 - - - -
22/03:00am 7.0 SW 1 4 1017.3 - 0.0 - Cloudy 10 - - - -
22/02:30am 6.9 WSW 3 4 1017.3 - 0.0 - Cloudy 10 - - - -
22/02:00am 7.0 CALM 0 0 1017.5 - 0.0 - Cloudy 10 - - - -
22/01:30am 6.6 CALM 0 3 1017.6 - 0.0 - Partly cloudy 10 - - - -
22/01:00am 6.9 SW 3 5 1017.8 - 0.0 - Cloudy 10 - - - -
22/12:30am 7.2 SW 3 4 1017.8 - 0.0 - Partly cloudy 10 - - - -
22/12:00am 8.0 WSW 1 4 1017.9 - 0.0 - Mostly cloudy 10 - - - -
 
Date/Time
EST
Temp
°C
Wind Pressure Rain since
9am
mm
Weather Cloud Vis
km
Sea
Height
m
Swell
Dir  Spd
kts
Gust
kts
hPa Trend Height
m
Period
s
Dir
21/11:30pm 9.2 WSW 2 4 1018.0 - 0.0 - - 10 - - - -
21/11:00pm 10.5 WSW 1 3 1018.0 - 0.0 - Partly cloudy 10 - - - -
21/10:30pm 11.4 NNW 4 4 1018.0 - 0.0 - Cloudy 10 - - - -
21/10:00pm 11.8 WNW 5 6 1018.1 - 0.0 - Cloudy 10 - - - -
21/09:30pm 11.7 W 6 7 1018.3 - 0.0 - Partly cloudy 10 - - - -
21/09:00pm 12.4 WNW 5 6 1018.2 - 0.0 - Cloudy 10 - - - -
21/08:30pm 12.3 WSW 8 9 1018.1 - 0.0 - Partly cloudy 10 - - - -
21/08:00pm 11.7 WSW 7 9 1017.7 - 0.0 - Cloudy 10 - - - -
21/07:30pm 11.8 SW 6 7 1017.3 - 0.0 - Partly cloudy 10 - - - -
21/07:00pm 11.4 W 6 6 1017.0 - 0.0 - Partly cloudy 10 - - - -
21/06:30pm 12.0 WSW 5 6 1016.6 - 0.0 - Cloudy 10 - - - -
21/06:00pm 12.9 WSW 5 6 1016.4 - 0.0 - Cloudy 10 - - - -
21/05:30pm 13.5 W 4 5 1016.1 - 0.0 - Partly cloudy 10 - - - -
21/05:00pm 14.9 NNW 5 7 1015.6 - 0.0 - Cloudy 10 - - - -
21/04:30pm 15.6 NNW 6 8 1015.4 - 0.0 - Cloudy 10 - - - -
21/04:00pm 16.0 NNW 6 8 1015.3 - 0.0 - Cloudy 10 - - - -
21/03:30pm 16.3 N 6 9 1015.2 - 0.0 - Cloudy 10 - - - -
21/03:00pm 16.2 NNW 3 6 1015.2 - 0.0 - Cloudy 10 - - - -
21/02:30pm 15.2 WSW 4 6 1015.4 - 0.0 - Cloudy 10 - - - -
21/02:00pm 15.0 W 5 7 1015.5 - 0.0 - Cloudy 10 - - - -
21/01:30pm 14.9 W 4 6 1015.9 - 0.0 - Cloudy 10 - - - -
21/01:00pm 15.1 NW 9 12 1016.4 - 0.0 - Cloudy 10 - - - -
21/12:30pm 16.2 WNW 9 13 1017.1 - 0.0 - Partly cloudy 10 - - - -
21/12:00pm 15.5 NNW 9 15 1017.8 - 0.0 - Mostly cloudy 10 - - - -
21/11:30am 15.2 NNW 8 13 1018.1 - 0.0 - Partly cloudy 10 - - - -
21/11:00am 15.0 NNW 7 10 1018.2 - 0.0 - - 10 - - - -
21/10:30am 15.0 NW 7 8 1018.5 - 0.0 - - 10 - - - -
21/10:00am 14.4 NW 9 12 1018.7 - 0.0 - - 10 - - - -
21/09:30am 14.0 NW 5 7 1018.9 - 0.0 - - 10 - - - -
21/09:00am 13.5 NW 7 9 1019.3 - 0.0 - Cloudy 10 - - - -
21/08:30am 12.6 NW 7 9 1019.6 - 0.0 - - 10 - - - -
21/08:00am 8.7 N 1 4 1019.7 - 0.0 - - 10 - - - -
21/07:30am 6.6 WSW 2 4 1019.7 - 0.0 - - 10 - - - -
21/07:00am 6.3 WNW 4 5 1019.6 - 0.0 - - 10 - - - -
21/06:30am 6.2 WSW 2 4 1019.1 - 0.0 - - 10 - - - -
21/06:00am 6.4 CALM 0 0 1019.2 - 0.0 - Cloudy 10 - - - -
21/05:30am 6.1 W 4 5 1019.3 - 0.0 - - 10 - - - -
21/05:00am 6.8 WNW 5 6 1019.3 - 0.0 - - 10 - - - -
21/04:30am 5.8 WNW 3 3 1019.4 - 0.0 - - 10 - - - -
21/04:00am 5.2 W 2 4 1019.7 - 0.0 - - 10 - - - -
21/03:30am 5.2 CALM 0 0 1019.7 - 0.0 - - 10 - - - -
21/03:00am 5.5 WSW 3 6 1020.0 - 0.0 - Mostly cloudy 10 - - - -
21/02:30am 4.7 WSW 4 7 1019.8 - 0.0 - - 10 - - - -
21/02:00am 4.3 CALM 0 3 1019.7 - 0.0 - - 10 - - - -
21/01:30am 4.1 W 3 4 1020.4 - 0.0 - - 10 - - - -
21/01:00am 4.4 WNW 2 5 1020.5 - 0.0 - - 10 - - - -
21/12:30am 4.6 CALM 0 0 1020.9 - 0.0 - - 10 - - - -
21/12:00am 5.5 W 4 5 1021.1 - 0.0 - - 10 - - - -
 
Date/Time
EST
Temp
°C
Wind Pressure Rain since
9am
mm
Weather Cloud Vis
km
Sea
Height
m
Swell
Dir  Spd
kts
Gust
kts
hPa Trend Height
m
Period
s
Dir
20/11:30pm 6.3 W 5 6 1021.0 - 0.0 - - 10 - - - -
20/11:00pm 5.9 W 1 4 1021.1 - 0.0 - - 10 - - - -
20/10:30pm 6.2 W 2 5 1021.8 - 0.0 - - 10 - - - -
20/10:00pm 5.6 W 4 5 1021.9 - 0.0 - - 10 - - - -
20/09:30pm 6.4 WSW 3 6 1022.0 - 0.0 - - 10 - - - -
20/09:00pm 6.9 WSW 4 7 1022.3 - 0.0 - Mostly cloudy 10 - - - -
20/08:30pm 5.3 W 7 8 1022.1 - 0.0 - - 10 - - - -
20/08:00pm 5.7 W 5 5 1022.3 - 0.0 - - 10 - - - -
20/07:30pm 6.9 WNW 7 8 1022.1 - 0.0 - - 10 - - - -
20/07:00pm 8.0 W 5 7 1021.8 - 0.0 - - 10 - - - -
20/06:30pm 8.9 SW 6 7 1021.9 - 0.0 - - 10 - - - -
20/06:00pm 11.5 SSE 8 10 1021.8 - 0.0 - - 10 - - - -
20/05:30pm 12.1 SSE 8 11 1021.7 - 0.0 - - 10 - - - -
20/05:00pm 12.9 SSE 7 11 1021.6 - 0.0 - - 10 - - - -
20/04:30pm 13.7 SSE 9 12 1021.6 - 0.0 - - 10 - - - -
20/04:00pm 14.2 SSE 10 14 1021.7 - 0.0 - - 10 - - - -
20/03:30pm 14.4 SSE 11 18 1021.7 - 0.0 - - 10 - - - -
20/03:00pm 14.5 SE 11 16 1021.7 - 0.0 - - 10 - - - -
20/02:30pm 14.9 S 11 16 1022.1 - 0.0 - - 10 - - - -
20/02:00pm 15.4 S 10 15 1022.1 - 0.0 - - 10 - - - -
20/01:30pm 15.4 SSE 10 15 1022.4 - 0.0 - Partly cloudy 10 - - - -
20/01:00pm 15.4 SSE 10 17 1022.6 - 0.0 - - 10 - - - -
20/12:30pm 15.7 S 10 16 1022.8 - 0.0 - - 10 - - - -
20/12:00pm 15.3 S 11 16 1023.2 - 0.0 - - 10 - - - -
20/11:30am 14.6 S 14 19 1023.4 - 0.0 - - 10 - - - -
20/11:00am 13.9 SSW 15 20 1024.0 - 0.0 - - 10 - - - -
20/10:30am 13.9 SSW 11 17 1024.4 - 0.0 - - 10 - - - -
20/10:00am 13.2 SW 12 16 1024.6 - 0.0 - - 10 - - - -
20/09:30am 12.7 SSW 11 18 1024.7 - 0.0 - - 10 - - - -
20/09:00am 11.9 SSW 14 22 1024.8 - 0.0 - - 10 - - - -
20/08:30am 11.6 SSW 10 21 1024.6 - 0.0 - - 10 - - - -
20/08:00am 11.0 SSW 11 17 1024.3 - 0.0 - - 10 - - - -
20/07:30am 10.4 SSW 11 18 1024.1 - 0.0 - - 10 - - - -
20/07:00am 9.4 SSW 11 16 1024.0 - 0.0 - - 10 - - - -
20/06:30am 9.3 SSW 14 20 1023.7 - 0.0 - - 10 - - - -
20/06:00am 9.4 SSW 15 23 1023.2 - 0.0 - - 10 - - - -
20/05:40am 9.2 SSW 17 27 1023.1 - 0.0 - - 10 - - - -
20/05:30am 9.5 SSW 17 24 1023.0 - 0.0 - - 10 - - - -
20/05:00am 9.5 SW 17 23 1023.0 - 0.0 - - 10 - - - -
20/04:30am 9.1 SSW 16 27 1022.9 - 0.0 - - 10 - - - -
20/04:28am 9.3 SSW 15 27 1022.9 - 0.0 - - 10 - - - -
20/04:00am 8.3 SW 12 20 1022.6 - 0.0 - - 10 - - - -
20/03:34am 9.4 SSW 15 25 1022.6 - 0.0 - - 10 - - - -
20/03:30am 9.1 SSW 13 21 1022.5 - 0.0 - - 10 - - - -
20/03:00am 8.9 SW 11 16 1022.5 - 0.0 - - 10 - - - -
20/02:30am 8.3 SW 9 16 1022.3 - 0.0 - - 10 - - - -
20/02:00am 9.1 SW 12 21 1022.5 - 0.0 - - 10 - - - -
20/01:30am 9.5 SW 11 20 1022.6 - 0.0 - - 10 - - - -
20/01:00am 9.8 SSW 15 24 1022.6 - 0.0 - - 10 - - - -
20/12:50am 9.8 SW 15 25 1022.4 - 0.0 - - 10 - - - -
20/12:30am 9.9 SW 11 21 1022.4 - 0.0 - - 10 - - - -
20/12:00am 10.4 SSW 17 29 1022.5 - 0.0 - - 10 - - - -
 
Date/Time
EST
Temp
°C
Wind Pressure Rain since
9am
mm
Weather Cloud Vis
km
Sea
Height
m
Swell
Dir  Spd
kts
Gust
kts
hPa Trend Height
m
Period
s
Dir
19/11:53pm 10.2 SSW 15 29 1022.4 - 0.0 - - 10 - - - -
19/11:30pm 9.8 SSW 9 16 1022.5 - 0.0 - - 10 - - - -
19/11:02pm 10.4 SSW 15 28 1022.7 - 0.0 - - 10 - - - -
19/11:00pm 10.6 SSW 14 28 1022.7 - 0.0 - - 10 - - - -
19/10:30pm 10.9 SSW 12 18 1022.8 - 0.0 - - 10 - - - -
19/10:00pm 10.9 SSW 12 17 1022.8 - 0.0 - - 10 - - - -
19/09:30pm 11.4 SSW 16 31 1022.6 - 0.0 - - 10 - - - -
19/09:18pm 11.6 SSW 15 25 1022.6 - 0.0 - - 10 - - - -
19/09:00pm 11.2 S 15 23 1022.3 - 0.0 - - 10 - - - -
19/08:30pm 11.4 SSW 12 18 1022.0 - 0.0 - - 10 - - - -
19/08:00pm 10.7 SW 8 12 1021.7 - 0.0 - - 10 - - - -
19/07:30pm 11.8 SSW 13 18 1021.4 - 0.0 - - 10 - - - -
19/07:00pm 11.8 S 15 20 1021.3 - 0.0 - - 10 - - - -
19/06:34pm 11.9 S 15 25 1021.1 - 0.0 - Partly cloudy 10 - - - -
19/06:30pm 12.3 S 17 25 1021.0 - 0.0 - Partly cloudy 10 - - - -
19/06:00pm 11.6 S 13 17 1020.7 - 0.0 - Mostly clear 10 - - - -
19/05:30pm 12.2 S 16 23 1020.3 - 0.0 - - 10 - - - -
19/05:00pm 12.7 S 15 22 1019.9 - 0.0 - Partly cloudy 10 - - - -
19/04:30pm 13.7 S 11 19 1019.2 - 0.0 - - 10 - - - -
19/04:00pm 14.3 S 13 19 1018.9 - 0.0 - - 10 - - - -
19/03:30pm 14.9 S 14 18 1018.6 - 0.0 - Partly cloudy 10 - - - -
19/03:00pm 15.2 S 14 22 1018.3 - 0.0 - Partly cloudy 10 - - - -
19/02:30pm 15.2 S 15 23 1018.2 - 0.0 - Partly cloudy 10 - - - -
19/02:13pm 15.8 SSW 15 28 1018.1 - 0.0 - Partly cloudy 10 - - - -
19/02:00pm 15.7 SSW 16 23 1018.0 - 0.0 - Partly cloudy 10 - - - -
19/01:30pm 15.4 SSW 15 28 1017.8 - 0.0 - - 10 - - - -
19/01:00pm 14.8 SSW 18 28 1017.7 - 0.0 - Partly cloudy 10 - - - -
19/12:54pm 14.7 SSW 22 32 1017.9 - 0.0 - Partly cloudy 10 - - - -
19/12:47pm 14.3 SSW 20 29 1018.1 - 0.0 - Partly cloudy 10 - - - -
19/12:44pm 14.4 SSW 20 30 1017.8 - 0.0 - - 10 - - - -
19/12:35pm 14.9 SSW 18 30 1017.7 - 0.0 - - 10 - - - -
19/12:30pm 15.0 SSW 17 25 1017.6 - 0.0 - - 10 - - - -
19/12:00pm 14.3 SSW 19 29 1017.8 - 0.0 - - 10 - - - -
19/11:40am 14.1 SSW 15 34 1017.9 - 0.0 - Partly cloudy 10 - - - -
19/11:30am 14.3 SSW 14 22 1017.6 - 0.0 - - 10 - - - -
19/11:00am 14.0 SSW 17 29 1017.7 - 0.0 - - 10 - - - -
19/10:34am 13.6 SW 17 27 1017.5 - 0.0 - - 10 - - - -
19/10:30am 13.8 SSW 17 23 1017.7 - 0.0 - - 10 - - - -
19/10:14am 13.2 SW 19 30 1017.7 - 0.0 - - 10 - - - -
19/10:00am 13.0 SW 15 24 1017.5 - 0.0 - - 10 - - - -

Other Formats:

Comma delimited format used in spreadsheet applications
http://www.bom.gov.au/fwo/IDN60701/IDN60701.95748.axf

JavaScript Object Notation format (JSON) in row-major order
http://www.bom.gov.au/fwo/IDN60701/IDN60701.95748.json